Terminal Aerodrome Forecast
Issued by NWS Cleveland, OH

Home | Current Version | Previous Version | Text Only | Print | Product List | Glossary Off
Versions: 1 2 3 4 5 6 7 8 9 10 11 12 13 14 15 16 17 18 19 20

714
FTUS41 KCLE 171519 AAB
TAFCAK
TAF AMD
KCAK 171519Z 1715/1812 26015G25KT 3SM -SN OVC025
      TEMPO 1715/1719 2SM -SN OVC012
     FM171900 27017G27KT P6SM OVC035
     FM172300 28012KT P6SM BKN025
     FM180500 28006KT P6SM SCT025=

USA.gov is the U.S. government's official web portal to all federal, state and local government web resources and services.